Time;durP1;ratioP1;P1;durP2;ratioP2;P2;SDS_P1;SDS_P2;PMS_P1;PMS_P2;Temp;Humidity;BMP_temperature;BMP_pressure;BME280_temperature;BME280_humidity;BME280_pressure;Samples;Min_cycle;Max_cycle;Signal;HPM_P1;HPM_P2
2022/03/25 00:00:25;;;;;;;0.10;0.10;;;9.90;55.00;;;;;;5020890;28;20021;-70
2022/03/25 00:02:52;;;;;;;0.32;0.32;;;9.80;55.40;;;;;;5013837;28;20561;-70
2022/03/25 00:05:19;;;;;;;3.10;2.38;;;9.80;55.90;;;;;;5017121;28;20061;-69
2022/03/25 00:07:45;;;;;;;4.13;3.90;;;9.80;55.90;;;;;;5020325;28;20034;-70
2022/03/25 00:10:11;;;;;;;0.10;0.10;;;9.80;56.20;;;;;;5015388;28;20040;-69
2022/03/25 00:12:40;;;;;;;0.63;0.63;;;9.80;56.20;;;;;;5020904;28;20025;-70
2022/03/25 00:15:06;;;;;;;0.10;0.10;;;9.80;56.50;;;;;;5014685;28;20025;-69
2022/03/25 00:17:33;;;;;;;0.10;0.10;;;9.80;56.70;;;;;;5016170;28;20030;-69
2022/03/25 00:19:59;;;;;;;0.20;0.20;;;9.70;56.50;;;;;;5014581;28;20029;-71
2022/03/25 00:22:25;;;;;;;0.10;0.10;;;9.80;56.40;;;;;;5015705;28;20567;-70
2022/03/25 00:24:51;;;;;;;0.10;0.10;;;9.70;56.90;;;;;;5018575;28;20026;-69
2022/03/25 00:27:17;;;;;;;0.10;0.10;;;9.70;56.40;;;;;;5016617;28;20142;-69
2022/03/25 00:29:44;;;;;;;0.10;0.10;;;9.60;56.60;;;;;;5018435;28;20049;-69
2022/03/25 00:32:10;;;;;;;0.13;0.13;;;9.60;57.30;;;;;;5016683;28;20059;-70
2022/03/25 00:34:35;;;;;;;2.50;2.40;;;9.50;57.20;;;;;;5013765;28;20402;-69
2022/03/25 00:37:01;;;;;;;0.10;0.10;;;9.50;57.70;;;;;;5015443;28;20049;-69
2022/03/25 00:39:27;;;;;;;5.68;3.40;;;9.50;58.00;;;;;;5021498;28;20104;-69
2022/03/25 00:41:53;;;;;;;1.30;1.23;;;9.40;58.00;;;;;;5014876;28;20129;-70
2022/03/25 00:44:19;;;;;;;7.28;6.70;;;9.40;57.60;;;;;;5012291;28;20122;-70
2022/03/25 00:46:45;;;;;;;0.10;0.10;;;9.30;58.30;;;;;;5018417;28;20247;-69
2022/03/25 00:49:11;;;;;;;1.60;1.50;;;9.50;58.30;;;;;;5020141;28;20022;-69
2022/03/25 00:51:37;;;;;;;0.52;0.52;;;9.30;58.50;;;;;;5013810;28;20045;-70
2022/03/25 00:54:04;;;;;;;0.32;0.32;;;9.30;59.00;;;;;;5017229;28;20740;-70
2022/03/25 00:56:29;;;;;;;0.20;0.20;;;9.20;59.40;;;;;;5011402;28;20052;-70
2022/03/25 00:58:55;;;;;;;0.10;0.10;;;9.30;59.50;;;;;;5014666;28;20536;-70
2022/03/25 01:01:25;;;;;;;0.10;0.10;;;9.20;60.00;;;;;;5015137;28;20096;-69
2022/03/25 01:03:51;;;;;;;0.38;0.38;;;9.20;60.00;;;;;;5011685;28;20022;-70
2022/03/25 01:06:18;;;;;;;0.10;0.10;;;9.20;61.40;;;;;;5007854;28;20037;-69
2022/03/25 01:08:44;;;;;;;0.32;0.32;;;9.20;62.80;;;;;;5013741;28;20064;-69
2022/03/25 01:11:10;;;;;;;0.10;0.10;;;9.20;62.20;;;;;;5021000;28;20075;-69
2022/03/25 01:13:36;;;;;;;0.95;0.95;;;9.10;62.60;;;;;;5011855;28;20018;-69
2022/03/25 01:16:06;;;;;;;0.25;0.25;;;9.10;63.20;;;;;;5015462;28;20101;-71
2022/03/25 01:18:32;;;;;;;1.98;1.85;;;9.20;65.20;;;;;;5015713;28;20033;-68
2022/03/25 01:20:58;;;;;;;0.10;0.10;;;9.00;65.60;;;;;;5019310;28;20026;-69
2022/03/25 01:23:25;;;;;;;0.20;0.20;;;8.90;67.40;;;;;;5015057;28;20036;-70
2022/03/25 01:25:51;;;;;;;0.80;0.80;;;8.90;68.30;;;;;;5019817;28;20029;-69
2022/03/25 01:28:17;;;;;;;0.10;0.10;;;8.80;68.70;;;;;;5014212;28;20033;-69
2022/03/25 01:30:43;;;;;;;0.10;0.10;;;8.70;70.00;;;;;;5017313;28;20083;-69
2022/03/25 01:33:09;;;;;;;1.13;1.13;;;8.70;70.90;;;;;;5020782;28;20514;-71
2022/03/25 01:35:38;;;;;;;0.10;0.10;;;8.70;72.80;;;;;;5018759;28;20040;-71
2022/03/25 01:38:04;;;;;;;0.10;0.10;;;8.70;74.10;;;;;;5019337;28;20025;-71
2022/03/25 01:40:31;;;;;;;1.65;1.45;;;8.60;76.10;;;;;;5020637;28;20109;-69
2022/03/25 01:42:56;;;;;;;0.10;0.10;;;8.50;79.10;;;;;;5015418;28;20491;-69
2022/03/25 01:45:36;;;;;;;0.30;0.30;;;8.40;80.40;;;;;;5014947;28;20037;-69
2022/03/25 01:48:13;;;;;;;0.10;0.10;;;8.40;80.70;;;;;;5015646;28;20029;-69
2022/03/25 01:50:41;;;;;;;0.10;0.10;;;8.40;85.10;;;;;;5017850;28;20033;-70
2022/03/25 01:53:19;;;;;;;0.20;0.20;;;8.30;88.90;;;;;;5014530;28;20105;-71
2022/03/25 01:55:52;;;;;;;0.30;0.30;;;8.20;90.10;;;;;;5019080;28;20233;-69
2022/03/25 01:58:18;;;;;;;0.65;0.65;;;8.10;90.80;;;;;;5018138;28;20029;-69
2022/03/25 02:00:45;;;;;;;0.10;0.10;;;8.20;91.80;;;;;;5018913;28;20399;-69
2022/03/25 02:03:10;;;;;;;0.10;0.10;;;8.30;91.80;;;;;;5019976;28;20037;-69
2022/03/25 02:05:36;;;;;;;0.20;0.20;;;8.40;91.60;;;;;;5017757;28;20026;-69
2022/03/25 02:08:03;;;;;;;0.20;0.20;;;8.40;90.60;;;;;;5018502;28;20088;-70
2022/03/25 02:10:29;;;;;;;0.20;0.20;;;8.50;92.20;;;;;;5019658;28;20022;-70
2022/03/25 02:12:55;;;;;;;4.03;2.35;;;8.50;94.70;;;;;;5019511;28;20022;-69
2022/03/25 02:15:34;;;;;;;0.10;0.10;;;8.40;95.80;;;;;;5019511;28;20544;-71
2022/03/25 02:18:05;;;;;;;0.13;0.13;;;8.40;97.50;;;;;;5019039;28;20025;-70
2022/03/25 02:20:32;;;;;;;0.20;0.20;;;8.30;98.60;;;;;;5022858;28;20049;-71
2022/03/25 02:22:58;;;;;;;0.20;0.20;;;8.30;99.40;;;;;;5016064;28;20022;-69
2022/03/25 02:25:26;;;;;;;3.53;3.28;;;8.30;96.50;;;;;;5022601;28;20026;-70
2022/03/25 02:27:53;;;;;;;0.40;0.40;;;8.20;97.20;;;;;;5023204;28;20061;-70
2022/03/25 02:30:20;;;;;;;0.10;0.10;;;8.10;99.00;;;;;;5017999;28;20025;-70
2022/03/25 02:32:46;;;;;;;0.30;0.30;;;8.00;99.90;;;;;;5026176;28;20098;-69
2022/03/25 02:35:12;;;;;;;0.10;0.10;;;8.00;99.90;;;;;;5021241;28;20110;-70
2022/03/25 02:37:38;;;;;;;2.63;2.40;;;8.00;99.90;;;;;;5020640;28;20116;-70
2022/03/25 02:40:04;;;;;;;5.35;3.15;;;8.00;99.90;;;;;;5018078;28;20030;-69
2022/03/25 02:42:30;;;;;;;2.00;1.65;;;8.00;99.90;;;;;;5022698;28;20426;-70
2022/03/25 02:44:56;;;;;;;0.10;0.10;;;8.00;99.90;;;;;;5020076;28;20037;-70
2022/03/25 02:47:21;;;;;;;0.10;0.10;;;8.10;99.90;;;;;;5017687;28;20018;-70
2022/03/25 02:49:51;;;;;;;0.17;0.17;;;8.00;99.90;;;;;;5022353;28;20533;-70
2022/03/25 02:52:17;;;;;;;0.10;0.10;;;8.00;99.90;;;;;;5022709;28;20021;-69
2022/03/25 02:54:43;;;;;;;2.55;2.45;;;7.90;99.90;;;;;;5022247;28;20030;-69
2022/03/25 02:57:10;;;;;;;0.10;0.10;;;7.80;99.90;;;;;;5021206;28;20131;-70
2022/03/25 02:59:36;;;;;;;0.22;0.22;;;7.80;99.90;;;;;;5022582;28;20029;-68
2022/03/25 03:02:02;;;;;;;0.10;0.10;;;7.70;99.90;;;;;;5020009;28;20045;-68
2022/03/25 03:04:28;;;;;;;0.10;0.10;;;7.70;99.90;;;;;;5020481;28;20126;-70
2022/03/25 03:06:54;;;;;;;0.10;0.10;;;7.50;99.90;;;;;;5021317;28;20431;-71
2022/03/25 03:09:19;;;;;;;0.10;0.10;;;7.50;99.90;;;;;;5019748;28;20041;-69
2022/03/25 03:11:45;;;;;;;0.30;0.30;;;7.50;99.90;;;;;;5020618;28;20042;-70
2022/03/25 03:14:12;;;;;;;0.25;0.25;;;7.60;99.90;;;;;;5020820;28;20013;-70
2022/03/25 03:16:38;;;;;;;0.50;0.50;;;7.70;99.90;;;;;;5022459;28;20120;-70
2022/03/25 03:19:04;;;;;;;0.52;0.52;;;7.60;99.90;;;;;;5020831;28;20052;-71
2022/03/25 03:21:31;;;;;;;0.10;0.10;;;7.60;99.90;;;;;;5018068;28;20033;-70
2022/03/25 03:23:57;;;;;;;0.47;0.47;;;7.60;99.90;;;;;;5017490;28;20109;-69
2022/03/25 03:26:23;;;;;;;0.10;0.10;;;7.50;99.90;;;;;;5025570;28;20112;-69
2022/03/25 03:28:49;;;;;;;1.05;1.05;;;7.50;99.90;;;;;;5021494;28;20084;-69
2022/03/25 03:31:16;;;;;;;0.13;0.13;;;7.50;99.90;;;;;;5019525;28;20482;-71
2022/03/25 03:33:41;;;;;;;0.10;0.10;;;7.40;99.90;;;;;;5021059;28;20021;-69
2022/03/25 03:36:07;;;;;;;0.40;0.40;;;7.30;99.90;;;;;;5022975;28;20026;-69
2022/03/25 03:38:34;;;;;;;0.85;0.85;;;7.30;99.90;;;;;;5017282;28;20033;-70
2022/03/25 03:41:02;;;;;;;0.10;0.10;;;7.40;99.90;;;;;;5019751;28;20764;-70
2022/03/25 03:43:29;;;;;;;0.30;0.30;;;7.50;99.90;;;;;;5017239;28;20030;-69
2022/03/25 03:45:55;;;;;;;0.10;0.10;;;7.50;99.90;;;;;;5019138;28;20535;-69
2022/03/25 03:48:20;;;;;;;0.20;0.20;;;7.50;99.90;;;;;;5019478;28;20120;-70
2022/03/25 03:50:46;;;;;;;0.10;0.10;;;7.50;99.90;;;;;;5020494;28;20053;-70
2022/03/25 03:53:12;;;;;;;0.30;0.30;;;7.50;99.90;;;;;;5021042;28;20036;-71
2022/03/25 03:55:38;;;;;;;0.30;0.30;;;7.50;99.90;;;;;;5022576;28;20025;-70
2022/03/25 03:58:04;;;;;;;0.10;0.10;;;7.50;99.90;;;;;;5021383;28;20112;-70
2022/03/25 04:00:30;;;;;;;0.65;0.65;;;7.40;99.90;;;;;;5020377;28;20108;-69
2022/03/25 04:02:56;;;;;;;0.20;0.20;;;7.50;99.90;;;;;;5019303;28;20068;-70
2022/03/25 04:05:22;;;;;;;0.10;0.10;;;7.40;99.90;;;;;;5021178;28;20021;-70
2022/03/25 04:07:48;;;;;;;2.55;2.15;;;7.40;99.90;;;;;;5017690;28;20034;-69
2022/03/25 04:10:16;;;;;;;0.10;0.10;;;7.30;99.90;;;;;;5020434;28;20025;-68
2022/03/25 04:12:42;;;;;;;0.20;0.20;;;7.30;99.90;;;;;;5019706;28;20479;-70
2022/03/25 04:15:09;;;;;;;0.10;0.10;;;7.20;99.90;;;;;;5019764;28;20050;-68
2022/03/25 04:17:39;;;;;;;0.30;0.30;;;7.20;99.90;;;;;;5019732;28;20284;-69
2022/03/25 04:20:06;;;;;;;0.25;0.25;;;7.20;99.90;;;;;;5023873;28;20037;-69
2022/03/25 04:22:32;;;;;;;0.10;0.10;;;7.20;99.90;;;;;;5019555;28;20117;-69
2022/03/25 04:24:58;;;;;;;0.10;0.10;;;7.20;99.90;;;;;;5016672;28;20112;-70
2022/03/25 04:27:24;;;;;;;0.73;0.73;;;7.10;99.90;;;;;;5019704;28;20382;-69
2022/03/25 04:29:50;;;;;;;0.82;0.82;;;7.00;99.90;;;;;;5019316;28;20045;-69
2022/03/25 04:32:16;;;;;;;0.10;0.10;;;7.00;99.90;;;;;;5021125;28;20043;-69
2022/03/25 04:34:42;;;;;;;0.52;0.52;;;7.00;99.90;;;;;;5014833;28;20079;-69
2022/03/25 04:37:09;;;;;;;1.20;1.20;;;7.10;99.90;;;;;;5013795;28;20495;-69
2022/03/25 04:39:38;;;;;;;0.47;0.47;;;6.90;99.90;;;;;;5018208;28;20034;-69
2022/03/25 04:42:03;;;;;;;0.20;0.20;;;6.90;99.90;;;;;;5017942;28;20533;-70
2022/03/25 04:44:29;;;;;;;0.47;0.47;;;6.80;99.90;;;;;;5017177;28;20030;-70
2022/03/25 04:46:56;;;;;;;0.10;0.10;;;6.70;99.90;;;;;;5018841;28;20021;-70
2022/03/25 04:49:23;;;;;;;0.10;0.10;;;6.60;99.90;;;;;;5020704;28;20032;-70
2022/03/25 04:51:48;;;;;;;0.15;0.15;;;6.50;99.90;;;;;;5016548;28;20031;-70
2022/03/25 04:54:14;;;;;;;1.08;1.08;;;6.50;99.90;;;;;;5022974;28;20017;-69
2022/03/25 04:56:40;;;;;;;0.20;0.20;;;6.50;99.90;;;;;;5019893;28;20080;-69
2022/03/25 04:59:06;;;;;;;0.10;0.10;;;6.60;99.90;;;;;;5018475;28;20406;-69
2022/03/25 05:01:32;;;;;;;0.40;0.40;;;6.70;99.90;;;;;;5021424;28;20406;-68
2022/03/25 05:03:57;;;;;;;0.98;0.98;;;6.60;99.90;;;;;;5013343;28;20021;-69
2022/03/25 05:06:23;;;;;;;0.57;0.57;;;6.60;99.90;;;;;;5015880;28;20030;-69
2022/03/25 05:08:49;;;;;;;5.00;1.50;;;6.60;99.90;;;;;;5020716;28;20044;-70
2022/03/25 05:11:15;;;;;;;1.83;1.75;;;6.50;99.90;;;;;;5022363;28;20483;-69
2022/03/25 05:13:41;;;;;;;0.10;0.10;;;6.50;99.90;;;;;;5018578;28;20428;-70
2022/03/25 05:16:06;;;;;;;0.10;0.10;;;6.60;99.90;;;;;;5018398;28;20048;-69
2022/03/25 05:18:32;;;;;;;0.43;0.40;;;6.60;99.90;;;;;;5016443;28;20037;-70
2022/03/25 05:21:00;;;;;;;0.82;0.82;;;6.60;99.90;;;;;;5020175;28;20080;-70
2022/03/25 05:23:25;;;;;;;0.10;0.10;;;6.50;99.90;;;;;;5018859;28;20035;-70
2022/03/25 05:25:51;;;;;;;0.10;0.10;;;6.40;99.90;;;;;;5019277;28;20037;-71
2022/03/25 05:28:17;;;;;;;0.10;0.10;;;6.30;99.90;;;;;;5018073;28;20026;-69
2022/03/25 05:30:42;;;;;;;0.10;0.10;;;6.20;99.90;;;;;;5019171;28;20084;-70
2022/03/25 05:33:08;;;;;;;0.10;0.10;;;6.30;99.90;;;;;;5034554;28;20599;-69
2022/03/25 05:35:34;;;;;;;0.10;0.10;;;6.30;99.90;;;;;;5016982;28;20033;-70
2022/03/25 05:38:00;;;;;;;0.17;0.17;;;6.40;99.90;;;;;;5016740;28;20528;-70
2022/03/25 05:40:26;;;;;;;0.10;0.10;;;6.40;99.90;;;;;;5021614;28;20052;-69
2022/03/25 05:42:53;;;;;;;2.25;2.15;;;6.30;99.90;;;;;;5021151;28;20080;-69
2022/03/25 05:45:20;;;;;;;0.10;0.10;;;6.40;99.90;;;;;;5018562;28;20070;-69
2022/03/25 05:47:46;;;;;;;0.82;0.80;;;6.50;99.90;;;;;;5014977;28;20101;-70
2022/03/25 05:50:13;;;;;;;0.55;0.55;;;6.40;99.90;;;;;;5019766;28;20087;-68
2022/03/25 05:52:40;;;;;;;0.40;0.40;;;6.40;99.90;;;;;;5020157;28;20518;-69
2022/03/25 05:55:06;;;;;;;0.10;0.10;;;6.40;99.90;;;;;;5017394;28;20606;-70
2022/03/25 05:57:32;;;;;;;1.15;1.15;;;6.40;99.90;;;;;;5017544;28;20596;-69
2022/03/25 05:59:59;;;;;;;0.90;0.90;;;6.30;99.90;;;;;;5022044;28;20033;-70
2022/03/25 06:02:26;;;;;;;0.15;0.15;;;6.30;99.90;;;;;;5019242;28;20033;-68
2022/03/25 06:04:52;;;;;;;0.10;0.10;;;6.40;99.90;;;;;;5017795;28;20109;-69
2022/03/25 06:07:18;;;;;;;0.10;0.10;;;6.70;99.90;;;;;;5020894;28;20037;-70
2022/03/25 06:09:43;;;;;;;0.90;0.90;;;6.40;99.90;;;;;;5021341;28;20036;-70
2022/03/25 06:12:11;;;;;;;0.10;0.10;;;6.30;99.90;;;;;;5020725;28;20034;-69
2022/03/25 06:14:38;;;;;;;0.40;0.40;;;6.30;99.90;;;;;;5019468;28;20029;-69
2022/03/25 06:17:08;;;;;;;1.77;1.67;;;6.30;99.90;;;;;;5035588;28;20544;-69
2022/03/25 06:19:33;;;;;;;1.67;1.58;;;6.30;99.90;;;;;;5019723;28;20037;-69
2022/03/25 06:21:59;;;;;;;0.10;0.10;;;6.30;99.90;;;;;;5022119;28;20510;-70
2022/03/25 06:24:25;;;;;;;0.10;0.10;;;6.40;99.90;;;;;;5023247;28;20053;-71
2022/03/25 06:26:52;;;;;;;0.10;0.10;;;6.50;99.90;;;;;;5022358;28;20064;-70
2022/03/25 06:29:19;;;;;;;0.40;0.40;;;6.60;99.90;;;;;;5019781;28;20030;-69
2022/03/25 06:31:45;;;;;;;1.08;1.08;;;6.60;99.90;;;;;;5020965;28;20044;-72
2022/03/25 06:34:11;;;;;;;0.10;0.10;;;6.70;99.90;;;;;;5016144;28;20021;-69
2022/03/25 06:36:37;;;;;;;0.57;0.57;;;6.60;99.90;;;;;;5024372;28;20040;-71
2022/03/25 06:39:03;;;;;;;2.90;2.67;;;6.60;99.90;;;;;;5020990;28;20040;-71
2022/03/25 06:41:28;;;;;;;0.20;0.20;;;6.70;99.90;;;;;;5025920;28;20483;-79
2022/03/25 06:43:54;;;;;;;0.10;0.10;;;6.60;99.90;;;;;;5023427;28;20479;-79
2022/03/25 06:46:20;;;;;;;0.20;0.20;;;6.50;99.90;;;;;;5017656;28;20034;-78
2022/03/25 06:48:46;;;;;;;0.20;0.20;;;6.80;99.90;;;;;;5020668;28;20485;-75
2022/03/25 06:51:12;;;;;;;0.60;0.60;;;6.60;99.90;;;;;;5017376;28;20022;-70
2022/03/25 06:53:39;;;;;;;0.20;0.20;;;6.80;99.90;;;;;;5016953;28;20033;-70
2022/03/25 06:56:05;;;;;;;0.20;0.20;;;7.00;99.90;;;;;;5020770;28;20030;-70
2022/03/25 06:58:31;;;;;;;0.17;0.17;;;7.10;99.90;;;;;;5023720;28;20026;-70
2022/03/25 07:00:57;;;;;;;0.10;0.10;;;7.30;99.90;;;;;;5022834;28;20128;-73
2022/03/25 07:03:24;;;;;;;0.10;0.10;;;7.40;99.90;;;;;;5019716;28;20115;-70
2022/03/25 07:05:52;;;;;;;0.10;0.10;;;7.40;99.90;;;;;;5017721;28;20030;-70
2022/03/25 07:08:21;;;;;;;0.20;0.20;;;7.60;99.90;;;;;;5022337;28;20029;-70
2022/03/25 07:10:48;;;;;;;0.10;0.10;;;7.60;99.90;;;;;;5017624;28;20534;-71
2022/03/25 07:13:14;;;;;;;0.10;0.10;;;7.50;99.90;;;;;;5023635;28;20022;-70
2022/03/25 07:15:40;;;;;;;0.10;0.10;;;7.60;99.90;;;;;;5019654;28;20031;-72
2022/03/25 07:18:06;;;;;;;0.10;0.10;;;7.70;99.90;;;;;;5019853;28;20108;-69
2022/03/25 07:20:32;;;;;;;0.10;0.10;;;7.80;99.90;;;;;;5021898;28;20029;-71
2022/03/25 07:22:58;;;;;;;0.10;0.10;;;7.80;99.90;;;;;;5023143;28;20076;-70
2022/03/25 07:25:25;;;;;;;0.20;0.20;;;7.80;99.90;;;;;;5018343;28;20416;-71
2022/03/25 07:30:26;;;;;;;0.10;0.10;;;8.00;99.90;;;;;;5020734;28;20415;-69
2022/03/25 07:32:51;;;;;;;0.10;0.10;;;8.20;99.90;;;;;;5017035;28;20029;-66
2022/03/25 07:35:18;;;;;;;0.10;0.10;;;8.50;99.90;;;;;;5019378;28;20029;-66
2022/03/25 07:37:44;;;;;;;0.10;0.10;;;8.50;99.90;;;;;;5024660;28;20108;-66
2022/03/25 07:40:12;;;;;;;0.17;0.17;;;8.50;99.90;;;;;;5024048;28;20108;-67
2022/03/25 07:42:40;;;;;;;0.63;0.63;;;8.60;99.90;;;;;;5022742;28;20029;-66
2022/03/25 07:45:08;;;;;;;0.80;0.80;;;8.60;99.90;;;;;;5025696;28;20124;-69
2022/03/25 07:47:38;;;;;;;0.93;0.93;;;8.50;99.90;;;;;;5024784;28;20029;-66
2022/03/25 07:50:04;;;;;;;1.17;1.17;;;8.80;99.90;;;;;;5025208;28;20471;-66
2022/03/25 07:52:31;;;;;;;0.20;0.20;;;9.00;99.90;;;;;;5023540;28;20030;-68
2022/03/25 07:54:56;;;;;;;0.10;0.10;;;9.00;99.80;;;;;;5022918;28;20018;-68
2022/03/25 07:57:22;;;;;;;1.52;1.52;;;9.00;99.10;;;;;;5021766;28;20521;-67
2022/03/25 07:59:47;;;;;;;0.10;0.10;;;9.00;98.90;;;;;;5023852;28;20045;-67
2022/03/25 08:02:13;;;;;;;0.10;0.10;;;9.10;98.60;;;;;;5024910;28;20064;-67
2022/03/25 08:04:39;;;;;;;0.20;0.20;;;9.30;98.00;;;;;;5024163;28;20482;-68
2022/03/25 08:07:04;;;;;;;0.20;0.20;;;9.50;96.90;;;;;;5024378;28;20482;-67
2022/03/25 08:09:30;;;;;;;0.10;0.10;;;9.60;96.00;;;;;;5029131;28;20029;-68
2022/03/25 08:11:55;;;;;;;0.50;0.50;;;9.60;95.70;;;;;;5014884;28;20112;-69
2022/03/25 08:14:22;;;;;;;0.47;0.47;;;9.70;95.30;;;;;;5021033;28;20032;-68
2022/03/25 08:16:47;;;;;;;2.35;2.20;;;9.80;95.00;;;;;;5019479;28;20036;-67
2022/03/25 08:19:13;;;;;;;1.85;1.77;;;10.00;93.60;;;;;;5026964;28;20026;-68
2022/03/25 08:21:39;;;;;;;0.20;0.20;;;10.00;93.20;;;;;;5026089;28;20557;-68
2022/03/25 08:29:35;;;;;;;0.10;0.10;;;10.40;91.20;;;;;;5024122;28;20033;-69
2022/03/25 08:32:02;;;;;;;0.20;0.20;;;11.20;91.40;;;;;;5024334;28;20036;-68
2022/03/25 08:34:28;;;;;;;2.83;2.47;;;10.60;90.60;;;;;;5018830;28;20022;-70
2022/03/25 08:36:54;;;;;;;0.75;0.63;;;10.80;89.50;;;;;;5015374;28;20036;-68
2022/03/25 08:39:20;;;;;;;1.85;1.75;;;11.10;88.40;;;;;;5020054;28;20080;-69
2022/03/25 08:41:45;;;;;;;0.55;0.55;;;11.20;87.10;;;;;;5022128;28;20064;-67
2022/03/25 08:44:11;;;;;;;0.57;0.57;;;11.40;85.50;;;;;;5018833;28;20626;-68
2022/03/25 08:46:37;;;;;;;6.40;5.85;;;11.50;84.20;;;;;;5020943;28;20470;-68
2022/03/25 08:49:04;;;;;;;0.20;0.20;;;11.60;82.60;;;;;;5019805;28;20030;-67
2022/03/25 08:51:30;;;;;;;0.10;0.10;;;11.80;81.10;;;;;;5020563;28;20072;-66
2022/03/25 08:53:56;;;;;;;0.32;0.32;;;11.90;79.90;;;;;;5025330;28;20044;-67
2022/03/25 08:56:24;;;;;;;0.10;0.10;;;11.90;79.50;;;;;;5022612;28;20538;-67
2022/03/25 08:58:50;;;;;;;1.42;1.38;;;12.00;78.50;;;;;;5020220;28;20056;-67
2022/03/25 09:01:16;;;;;;;0.20;0.20;;;12.20;77.40;;;;;;5021347;28;20025;-67
2022/03/25 09:03:42;;;;;;;0.35;0.35;;;12.40;76.40;;;;;;5020153;28;20026;-67
2022/03/25 09:06:07;;;;;;;2.45;2.28;;;12.50;74.80;;;;;;5013433;28;20056;-67
2022/03/25 09:08:33;;;;;;;0.20;0.20;;;12.70;72.50;;;;;;5028719;28;20475;-67
2022/03/25 09:10:58;;;;;;;0.20;0.20;;;12.70;71.50;;;;;;5020867;28;20506;-68
2022/03/25 09:13:24;;;;;;;3.53;3.30;;;12.90;69.80;;;;;;5030163;28;20099;-67
2022/03/25 09:15:50;;;;;;;0.38;0.38;;;13.30;68.40;;;;;;5024093;28;20501;-67
2022/03/25 09:18:15;;;;;;;1.05;1.05;;;13.20;67.30;;;;;;5017899;28;20026;-67
2022/03/25 09:20:41;;;;;;;1.02;0.98;;;13.30;66.30;;;;;;5021343;28;20029;-66
2022/03/25 09:23:08;;;;;;;0.93;0.93;;;13.20;65.20;;;;;;5029492;28;20507;-66
2022/03/25 09:25:35;;;;;;;3.25;2.95;;;13.20;64.90;;;;;;5026949;28;20074;-66
2022/03/25 09:28:01;;;;;;;0.65;0.65;;;13.30;63.20;;;;;;5029098;28;20037;-66
2022/03/25 09:30:27;;;;;;;0.10;0.10;;;13.40;62.60;;;;;;5027730;28;20548;-66
2022/03/25 09:32:53;;;;;;;1.02;1.02;;;13.50;62.70;;;;;;5020188;28;20022;-67
2022/03/25 09:35:19;;;;;;;0.38;0.38;;;13.70;62.00;;;;;;5024909;28;20479;-68
2022/03/25 09:37:47;;;;;;;0.52;0.52;;;13.90;61.00;;;;;;5020443;28;20030;-69
2022/03/25 09:40:15;;;;;;;0.10;0.10;;;14.00;60.10;;;;;;5028451;28;20048;-67
2022/03/25 09:42:41;;;;;;;0.40;0.40;;;14.00;58.50;;;;;;5020281;28;20475;-67
2022/03/25 09:45:09;;;;;;;0.73;0.73;;;14.00;59.10;;;;;;5027217;28;20501;-67
2022/03/25 09:47:35;;;;;;;1.85;1.75;;;14.20;58.60;;;;;;5023532;28;20144;-67
2022/03/25 09:50:03;;;;;;;0.10;0.10;;;14.10;58.60;;;;;;5018802;28;20030;-67
2022/03/25 09:52:31;;;;;;;1.00;1.00;;;14.20;59.00;;;;;;5014151;28;20018;-67
2022/03/25 09:54:58;;;;;;;2.53;2.40;;;14.30;58.40;;;;;;5018660;28;20018;-67
2022/03/25 09:57:24;;;;;;;2.00;1.90;;;14.40;58.30;;;;;;5018938;28;20030;-66
2022/03/25 09:59:49;;;;;;;5.13;4.68;;;14.60;58.10;;;;;;5024850;28;20126;-67
2022/03/25 10:02:15;;;;;;;1.00;1.00;;;14.80;56.80;;;;;;5027288;28;20538;-66
2022/03/25 10:04:43;;;;;;;3.97;3.30;;;15.00;56.20;;;;;;5027993;28;20041;-67
2022/03/25 10:07:20;;;;;;;0.10;0.10;;;15.00;55.40;;;;;;5024282;28;20033;-67
2022/03/25 10:10:10;;;;;;;5.13;3.35;;;15.10;53.90;;;;;;5024694;28;20079;-67
2022/03/25 10:12:37;;;;;;;0.10;0.10;;;14.90;53.50;;;;;;5017536;28;20045;-67
2022/03/25 10:15:20;;;;;;;0.30;0.30;;;15.00;53.60;;;;;;5017366;28;20015;-67
2022/03/25 10:18:04;;;;;;;0.82;0.68;;;15.00;53.30;;;;;;5020682;28;20029;-67
2022/03/25 10:20:34;;;;;;;1.42;1.40;;;15.20;52.90;;;;;;5023013;28;20563;-66
2022/03/25 10:23:20;;;;;;;0.57;0.57;;;15.30;51.50;;;;;;5019920;28;20393;-67
2022/03/25 10:25:51;;;;;;;8.15;5.68;;;15.50;51.50;;;;;;5018452;28;20501;-66
2022/03/25 10:28:31;;;;;;;0.32;0.32;;;15.60;48.60;;;;;;5017473;28;20105;-67
2022/03/25 10:31:04;;;;;;;1.27;1.23;;;15.60;48.20;;;;;;5020210;28;20022;-67
2022/03/25 10:33:58;;;;;;;0.47;0.47;;;15.70;47.30;;;;;;5019949;28;20029;-67
2022/03/25 10:36:25;;;;;;;1.98;1.90;;;15.70;47.60;;;;;;5022991;28;20064;-70
2022/03/25 10:38:51;;;;;;;0.20;0.20;;;15.90;48.40;;;;;;5018691;28;20133;-68
2022/03/25 10:41:22;;;;;;;0.30;0.30;;;15.80;48.10;;;;;;5026354;28;20063;-66
2022/03/25 10:44:04;;;;;;;0.47;0.47;;;15.90;48.30;;;;;;5022647;28;20025;-68
2022/03/25 10:46:36;;;;;;;10.98;6.07;;;15.80;48.00;;;;;;5015947;28;20022;-67
2022/03/25 10:49:05;;;;;;;2.67;2.58;;;16.00;49.20;;;;;;5023463;28;20049;-67
2022/03/25 10:51:31;;;;;;;0.25;0.25;;;16.20;48.90;;;;;;5019022;28;20623;-67
2022/03/25 10:54:03;;;;;;;1.20;1.20;;;16.40;48.50;;;;;;5020549;28;20030;-66
2022/03/25 10:56:40;;;;;;;0.55;0.55;;;16.20;48.80;;;;;;5027349;28;20104;-66
2022/03/25 10:59:29;;;;;;;0.10;0.10;;;16.30;48.80;;;;;;5016897;28;20029;-65
2022/03/25 11:01:57;;;;;;;0.93;0.93;;;16.40;48.50;;;;;;5023492;28;20033;-66
2022/03/25 11:04:24;;;;;;;1.45;1.35;;;16.40;48.40;;;;;;5026476;28;20026;-66
2022/03/25 11:06:50;;;;;;;15.18;4.32;;;16.60;48.60;;;;;;5023686;28;20064;-66
2022/03/25 11:09:17;;;;;;;3.92;2.92;;;16.70;47.00;;;;;;5030611;28;20021;-67
2022/03/25 11:11:45;;;;;;;0.20;0.20;;;16.70;47.30;;;;;;5025469;28;20034;-67
2022/03/25 11:14:12;;;;;;;0.52;0.52;;;16.80;47.30;;;;;;5025038;28;20505;-66
2022/03/25 11:16:44;;;;;;;0.30;0.30;;;16.90;47.30;;;;;;5025049;28;20105;-67
2022/03/25 11:19:10;;;;;;;0.73;0.73;;;16.90;46.60;;;;;;5028986;28;20022;-66
2022/03/25 11:21:44;;;;;;;2.97;2.72;;;17.00;46.80;;;;;;5022953;28;20149;-66
2022/03/25 11:24:19;;;;;;;0.10;0.10;;;16.90;46.20;;;;;;5028496;28;20449;-66
2022/03/25 11:26:48;;;;;;;0.60;0.60;;;17.00;46.50;;;;;;5031241;28;20025;-67
2022/03/25 11:29:17;;;;;;;4.30;4.03;;;17.20;44.60;;;;;;5027209;28;20033;-67
2022/03/25 11:32:15;;;;;;;0.57;0.57;;;17.30;43.10;;;;;;5021206;28;20022;-68
2022/03/25 11:34:43;;;;;;;0.10;0.10;;;17.40;43.20;;;;;;4989946;28;20061;-68
2022/03/25 11:37:18;;;;;;;0.10;0.10;;;17.30;42.30;;;;;;5023252;28;20057;-68
2022/03/25 11:39:44;;;;;;;0.40;0.40;;;17.40;43.10;;;;;;5019203;28;20096;-69
2022/03/25 11:42:39;;;;;;;7.47;4.75;;;17.50;43.90;;;;;;5022770;28;20479;-68
2022/03/25 11:45:32;;;;;;;0.45;0.45;;;17.60;43.20;;;;;;5022095;28;20057;-68
2022/03/25 11:48:02;;;;;;;0.10;0.10;;;17.60;43.60;;;;;;5019351;28;20022;-69
2022/03/25 11:50:42;;;;;;;0.10;0.10;;;17.60;43.00;;;;;;5020882;28;20021;-70
2022/03/25 11:53:11;;;;;;;0.10;0.10;;;17.80;42.50;;;;;;5020464;28;20437;-67
2022/03/25 11:56:06;;;;;;;0.55;0.55;;;17.80;42.90;;;;;;5024088;28;20026;-70
2022/03/25 11:58:55;;;;;;;0.35;0.35;;;17.80;41.60;;;;;;5025927;28;20037;-66
2022/03/25 12:01:22;;;;;;;0.10;0.10;;;17.70;42.30;;;;;;5030822;28;20040;-68
2022/03/25 12:03:53;;;;;;;1.80;1.70;;;17.80;42.40;;;;;;5021132;28;20054;-68
2022/03/25 12:06:21;;;;;;;0.10;0.10;;;17.90;42.30;;;;;;5029598;28;20491;-67
2022/03/25 12:09:18;;;;;;;1.85;1.50;;;17.80;42.60;;;;;;5022728;28;20186;-67
2022/03/25 12:11:49;;;;;;;0.13;0.13;;;17.90;42.70;;;;;;5023873;28;20025;-68
2022/03/25 12:14:36;;;;;;;0.10;0.10;;;18.00;42.90;;;;;;5018377;28;20022;-67
2022/03/25 12:17:11;;;;;;;3.92;3.63;;;18.10;43.40;;;;;;5026849;28;20083;-66
2022/03/25 12:19:51;;;;;;;0.45;0.45;;;18.10;43.30;;;;;;5026254;28;20029;-67
2022/03/25 12:22:19;;;;;;;0.65;0.65;;;18.10;41.70;;;;;;5025395;28;20065;-68
2022/03/25 12:24:46;;;;;;;0.35;0.35;;;18.00;41.90;;;;;;5029785;28;20032;-67
2022/03/25 12:27:13;;;;;;;1.27;1.27;;;18.10;41.70;;;;;;5021938;28;20070;-67
2022/03/25 12:29:43;;;;;;;0.30;0.30;;;18.00;40.90;;;;;;5016664;28;20029;-67
2022/03/25 12:32:13;;;;;;;0.10;0.10;;;18.00;41.10;;;;;;5026336;28;20484;-67
2022/03/25 12:34:44;;;;;;;0.40;0.40;;;18.00;41.70;;;;;;5025298;28;20072;-67
2022/03/25 12:37:14;;;;;;;0.10;0.10;;;18.00;41.60;;;;;;5026498;28;20033;-67
2022/03/25 12:39:40;;;;;;;4.15;3.92;;;18.10;41.80;;;;;;5023310;28;20032;-66
2022/03/25 12:42:13;;;;;;;0.17;0.17;;;18.20;42.00;;;;;;5020007;28;20034;-67
2022/03/25 12:44:39;;;;;;;0.85;0.85;;;18.00;42.00;;;;;;5024002;28;20521;-68
2022/03/25 12:47:06;;;;;;;2.08;1.98;;;17.80;42.40;;;;;;5014505;28;20069;-67
2022/03/25 12:49:33;;;;;;;0.80;0.80;;;18.10;42.60;;;;;;5021164;28;20043;-67
2022/03/25 12:52:00;;;;;;;0.32;0.32;;;18.20;43.00;;;;;;5020453;28;20017;-67
2022/03/25 12:54:31;;;;;;;0.20;0.20;;;18.50;42.30;;;;;;5015726;28;20048;-67
2022/03/25 12:57:01;;;;;;;2.28;2.08;;;18.90;42.00;;;;;;5014137;28;20037;-69
2022/03/25 12:59:28;;;;;;;2.13;2.03;;;19.40;42.00;;;;;;5016066;28;20167;-68
2022/03/25 13:01:54;;;;;;;0.55;0.55;;;20.00;41.90;;;;;;5026046;28;20097;-67
2022/03/25 13:04:30;;;;;;;1.98;1.88;;;20.70;41.40;;;;;;5018738;28;20144;-68